Time;durP1;ratioP1;P1;durP2;ratioP2;P2;SDS_P1;SDS_P2;PMS_P1;PMS_P2;Temp;Humidity;BMP_temperature;BMP_pressure;BME280_temperature;BME280_humidity;BME280_pressure;Samples;Min_cycle;Max_cycle;Signal;HPM_P1;HPM_P2
2021/08/05 00:01:59;;;;;;;5.83;4.75;;;;;;;21.60;65.29;100125.48;1691858;83;21017;-74
2021/08/05 00:04:25;;;;;;;4.83;4.35;;;;;;;21.60;65.23;100117.42;1702764;84;21106;-74
2021/08/05 00:06:52;;;;;;;5.33;4.62;;;;;;;21.60;64.73;100113.39;1646532;85;22715;-73
2021/08/05 00:09:20;;;;;;;7.72;4.90;;;;;;;21.62;64.39;100105.47;1706261;83;20934;-73
2021/08/05 00:11:48;;;;;;;6.53;5.28;;;;;;;21.66;64.05;100108.58;1701504;84;21064;-73
2021/08/05 00:14:14;;;;;;;5.20;4.70;;;;;;;21.70;64.06;100113.85;1686905;85;21456;-74
2021/08/05 00:16:42;;;;;;;5.03;4.53;;;;;;;21.71;64.17;100109.64;1676231;85;20964;-73
2021/08/05 00:19:10;;;;;;;5.90;4.50;;;;;;;21.73;64.54;100112.64;1676272;85;20967;-73
2021/08/05 00:21:39;;;;;;;6.55;4.83;;;;;;;21.70;65.05;100107.12;1676201;85;21454;-73
2021/08/05 00:24:06;;;;;;;5.78;5.00;;;;;;;21.63;65.53;100097.72;1677150;85;21450;-74
2021/08/05 00:26:32;;;;;;;7.15;4.80;;;;;;;21.60;65.85;100094.58;1675361;85;20993;-73
2021/08/05 00:28:59;;;;;;;5.58;4.83;;;;;;;21.51;66.11;100095.27;1653540;86;20981;-73
2021/08/05 00:31:26;;;;;;;5.05;4.55;;;;;;;21.43;66.19;100098.97;1682498;84;21848;-74
2021/08/05 00:33:52;;;;;;;5.25;4.60;;;;;;;21.47;66.20;100097.22;1682257;85;20965;-73
2021/08/05 00:36:19;;;;;;;8.38;5.20;;;;;;;21.43;66.30;100090.08;1648085;85;21421;-73
2021/08/05 00:38:47;;;;;;;5.97;4.80;;;;;;;21.40;66.34;100093.14;1673238;85;21512;-74
2021/08/05 00:41:15;;;;;;;5.55;4.65;;;;;;;21.36;66.19;100094.06;1653540;86;20977;-74
2021/08/05 00:43:41;;;;;;;6.80;4.58;;;;;;;21.36;65.81;100086.01;1675013;85;21871;-74
2021/08/05 00:46:08;;;;;;;5.17;4.28;;;;;;;21.37;65.34;100089.01;1644994;87;21654;-75
2021/08/05 00:48:35;;;;;;;4.83;4.42;;;;;;;21.41;65.13;100087.57;1673577;84;21457;-74
2021/08/05 00:51:01;;;;;;;6.08;4.28;;;;;;;21.46;64.95;100084.81;1695453;84;20965;-74
2021/08/05 00:53:29;;;;;;;6.83;4.30;;;;;;;21.49;64.61;100082.55;1680681;84;20952;-73
2021/08/05 00:55:57;;;;;;;4.90;4.40;;;;;;;21.50;64.47;100074.80;1692716;83;22233;-73
2021/08/05 00:58:25;;;;;;;5.17;3.77;;;;;;;21.52;64.52;100074.11;1692677;83;21019;-73
2021/08/05 01:00:55;;;;;;;9.53;4.03;;;;;;;21.54;63.78;100069.88;1685497;84;20987;-74
2021/08/05 01:03:34;;;;;;;4.67;3.67;;;;;;;21.59;62.93;100065.53;1678584;85;20989;-73
2021/08/05 01:06:15;;;;;;;4.72;3.50;;;;;;;21.65;62.33;100072.80;1663584;86;21460;-73
2021/08/05 01:08:45;;;;;;;5.87;3.52;;;;;;;21.69;61.50;100071.36;1692689;83;22222;-74
2021/08/05 01:11:26;;;;;;;4.15;3.58;;;;;;;21.73;60.88;100079.05;1691662;84;21101;-74
2021/08/05 01:13:59;;;;;;;4.65;3.58;;;;;;;21.65;61.43;100094.31;1693459;83;21083;-74
2021/08/05 01:16:29;;;;;;;6.00;4.00;;;;;;;21.56;59.25;100094.16;1748474;82;21004;-74
2021/08/05 01:19:14;;;;;;;5.17;4.00;;;;;;;21.59;59.31;100091.06;1737644;82;20975;-74
2021/08/05 01:22:02;;;;;;;4.80;4.03;;;;;;;21.62;59.51;100089.34;1737637;82;22722;-74
2021/08/05 01:24:31;;;;;;;7.30;3.90;;;;;;;21.61;59.66;100101.09;1741309;82;21049;-74
2021/08/05 01:27:02;;;;;;;5.95;4.03;;;;;;;21.63;59.28;100086.97;1741614;82;21006;-74
2021/08/05 01:29:34;;;;;;;5.50;4.50;;;;;;;21.65;59.57;100075.49;1738979;82;20984;-74
2021/08/05 01:32:05;;;;;;;4.55;4.15;;;;;;;21.66;60.00;100082.52;1750669;82;20948;-74
2021/08/05 01:34:32;;;;;;;6.42;4.40;;;;;;;21.60;60.78;100093.23;1711111;83;21854;-74
2021/08/05 01:36:59;;;;;;;6.37;4.28;;;;;;;21.51;60.62;100080.48;1681188;85;21481;-74
2021/08/05 01:39:28;;;;;;;4.50;4.10;;;;;;;21.50;60.98;100090.09;1679724;85;21525;-74
2021/08/05 01:41:57;;;;;;;5.22;4.20;;;;;;;21.41;61.38;100080.02;1709434;83;21052;-75
2021/08/05 01:44:25;;;;;;;5.20;4.17;;;;;;;21.33;62.10;100075.67;1749879;82;21016;-74
2021/08/05 01:46:51;;;;;;;4.85;4.37;;;;;;;21.22;62.88;100075.34;1750030;80;21756;-74
2021/08/05 01:49:18;;;;;;;4.80;4.28;;;;;;;21.09;63.37;100071.56;1720740;82;21043;-74
2021/08/05 01:51:47;;;;;;;6.87;4.92;;;;;;;20.96;63.93;100065.29;1682616;84;20965;-74
2021/08/05 01:54:13;;;;;;;7.05;4.80;;;;;;;20.86;64.32;100067.81;1741534;82;20965;-74
2021/08/05 01:56:40;;;;;;;4.83;4.42;;;;;;;20.80;64.77;100055.67;1741522;82;20957;-74
2021/08/05 01:59:07;;;;;;;7.85;4.90;;;;;;;20.76;65.09;100046.37;1741792;82;22244;-74
2021/08/05 02:01:35;;;;;;;5.20;4.58;;;;;;;20.70;65.44;100044.45;1741576;82;21543;-74
2021/08/05 02:04:27;;;;;;;6.50;4.75;;;;;;;20.66;65.80;100052.59;1741640;81;20961;-74
2021/08/05 02:07:29;;;;;;;5.85;4.80;;;;;;;20.61;66.18;100046.45;1741807;82;21420;-74
2021/08/05 02:10:10;;;;;;;5.58;4.87;;;;;;;20.57;66.62;100044.68;1719938;83;21056;-74
2021/08/05 02:12:44;;;;;;;5.30;4.53;;;;;;;20.54;67.07;100041.02;1731620;82;22232;-74
2021/08/05 02:15:11;;;;;;;5.65;5.03;;;;;;;20.52;67.43;100044.93;1741147;82;20957;-74
2021/08/05 02:17:40;;;;;;;8.15;5.03;;;;;;;20.53;67.71;100049.27;1741472;81;21048;-74
2021/08/05 02:20:09;;;;;;;8.23;5.92;;;;;;;20.54;67.93;100053.09;1741522;82;21053;-73
2021/08/05 02:22:36;;;;;;;9.03;6.17;;;;;;;20.56;68.10;100059.12;1747030;82;21501;-73
2021/08/05 02:25:03;;;;;;;6.70;6.10;;;;;;;20.60;68.06;100051.50;1749363;82;22498;-74
2021/08/05 02:27:30;;;;;;;8.18;6.03;;;;;;;20.66;68.08;100053.42;1743538;82;20957;-74
2021/08/05 02:29:57;;;;;;;6.35;5.75;;;;;;;20.74;68.10;100049.73;1743664;82;21044;-74
2021/08/05 02:32:23;;;;;;;6.00;5.37;;;;;;;20.82;68.11;100058.47;1699760;82;21180;-74
2021/08/05 02:34:50;;;;;;;5.50;4.95;;;;;;;20.86;68.24;100054.91;1735983;82;21062;-74
2021/08/05 02:37:17;;;;;;;6.60;5.03;;;;;;;20.89;68.42;100057.70;1741566;82;21880;-74
2021/08/05 02:39:43;;;;;;;6.17;5.58;;;;;;;20.90;68.51;100050.78;1744005;82;20957;-74
2021/08/05 02:42:10;;;;;;;6.40;5.70;;;;;;;20.86;68.60;100049.02;1744267;82;21007;-74
2021/08/05 02:44:37;;;;;;;6.03;5.30;;;;;;;20.87;68.72;100056.56;1752544;82;21036;-74
2021/08/05 02:47:05;;;;;;;6.03;5.17;;;;;;;20.88;68.86;100050.67;1716787;82;21452;-74
2021/08/05 02:49:31;;;;;;;10.78;6.12;;;;;;;20.90;68.96;100051.30;1673290;83;22502;-74
2021/08/05 02:51:59;;;;;;;7.03;5.92;;;;;;;20.89;69.12;100051.81;1741398;82;20981;-74
2021/08/05 02:54:26;;;;;;;6.83;6.12;;;;;;;20.86;69.24;100053.05;1741511;82;21001;-74
2021/08/05 02:56:54;;;;;;;7.87;6.83;;;;;;;20.86;69.30;100053.56;1741480;81;20954;-74
2021/08/05 02:59:20;;;;;;;7.00;6.28;;;;;;;20.87;69.33;100056.56;1742773;82;21609;-74
2021/08/05 03:01:47;;;;;;;8.98;6.70;;;;;;;20.87;69.36;100055.22;1737858;82;22781;-74
2021/08/05 03:04:13;;;;;;;9.83;6.85;;;;;;;20.89;69.39;100053.67;1737484;82;21423;-74
2021/08/05 03:06:40;;;;;;;7.53;6.60;;;;;;;20.90;69.44;100052.12;1737761;82;21354;-74
2021/08/05 03:09:07;;;;;;;7.72;6.92;;;;;;;20.91;69.30;100052.44;1712209;82;21004;-74
2021/08/05 03:11:33;;;;;;;9.35;6.67;;;;;;;20.90;69.21;100048.62;1741707;82;20961;-74
2021/08/05 03:14:02;;;;;;;7.60;6.65;;;;;;;20.91;69.12;100053.78;1741554;82;21373;-74
2021/08/05 03:16:29;;;;;;;9.98;7.10;;;;;;;20.92;68.94;100059.47;1747069;81;20993;-74
2021/08/05 03:18:57;;;;;;;9.48;6.85;;;;;;;20.94;68.87;100052.55;1752765;81;21000;-74
2021/08/05 03:21:26;;;;;;;11.60;8.08;;;;;;;20.95;68.91;100048.36;1755265;81;21090;-74
2021/08/05 03:23:52;;;;;;;8.90;7.33;;;;;;;20.95;68.82;100047.02;1755358;81;20961;-74
2021/08/05 03:26:19;;;;;;;8.48;7.42;;;;;;;20.92;68.51;100048.73;1755277;81;22870;-74
2021/08/05 03:28:45;;;;;;;7.90;7.12;;;;;;;20.90;68.30;100052.12;1750833;81;21416;-74
2021/08/05 03:31:12;;;;;;;9.08;7.17;;;;;;;20.92;67.85;100059.47;1750717;81;20960;-74
2021/08/05 03:33:38;;;;;;;8.03;6.92;;;;;;;20.88;67.53;100058.21;1751460;81;21006;-74
2021/08/05 03:36:04;;;;;;;10.90;7.33;;;;;;;20.88;67.17;100055.53;1741570;81;20985;-74
2021/08/05 03:38:31;;;;;;;9.78;7.50;;;;;;;20.85;66.83;100055.42;1746751;81;21797;-74
2021/08/05 03:40:58;;;;;;;9.75;7.75;;;;;;;20.85;66.61;100047.88;1746692;81;20981;-74
2021/08/05 03:43:24;;;;;;;9.85;7.37;;;;;;;20.84;66.26;100043.50;1747083;82;20953;-74
2021/08/05 03:45:51;;;;;;;9.80;7.90;;;;;;;20.83;65.91;100045.88;1748884;81;21012;-74
2021/08/05 03:48:17;;;;;;;10.63;7.47;;;;;;;20.79;65.50;100047.31;1748776;81;21020;-75
2021/08/05 03:50:43;;;;;;;10.45;8.05;;;;;;;20.76;65.33;100045.86;1747681;81;22255;-74
2021/08/05 03:53:10;;;;;;;10.30;7.50;;;;;;;20.74;65.14;100047.88;1752531;81;21095;-75
2021/08/05 03:55:37;;;;;;;11.40;8.53;;;;;;;20.72;64.96;100043.23;1727164;81;21019;-74
2021/08/05 03:58:06;;;;;;;10.10;7.50;;;;;;;20.72;64.94;100047.77;1738428;81;20960;-74
2021/08/05 04:00:31;;;;;;;10.10;7.70;;;;;;;20.71;65.01;100043.42;1753050;81;21101;-74
2021/08/05 04:02:58;;;;;;;11.15;7.75;;;;;;;20.69;65.03;100044.14;1747638;81;22182;-75
2021/08/05 04:05:24;;;;;;;7.97;7.17;;;;;;;20.65;65.07;100041.00;1754942;81;20976;-74
2021/08/05 04:07:51;;;;;;;12.88;6.72;;;;;;;20.63;65.16;100044.91;1749723;81;20961;-75
2021/08/05 04:10:17;;;;;;;8.58;6.55;;;;;;;20.60;64.44;100042.11;1748247;81;21143;-72
2021/08/05 04:12:45;;;;;;;10.00;6.33;;;;;;;20.57;64.12;100035.29;1745662;81;21052;-72
2021/08/05 04:15:12;;;;;;;7.75;6.35;;;;;;;20.57;63.94;100034.46;1754617;81;21828;-72
2021/08/05 04:17:39;;;;;;;8.33;6.65;;;;;;;20.58;63.68;100031.58;1754039;81;21023;-73
2021/08/05 04:20:08;;;;;;;8.70;6.90;;;;;;;20.60;63.56;100029.20;1719286;83;21420;-74
2021/08/05 04:22:36;;;;;;;8.03;6.45;;;;;;;20.61;63.54;100032.20;1719324;83;20957;-73
2021/08/05 04:25:05;;;;;;;10.13;6.75;;;;;;;20.62;63.78;100033.34;1746992;81;20961;-72
2021/08/05 04:27:31;;;;;;;11.40;6.70;;;;;;;20.67;64.02;100037.63;1755285;81;21814;-74
2021/08/05 04:29:58;;;;;;;9.50;6.60;;;;;;;20.74;64.16;100030.44;1755158;81;21058;-74
2021/08/05 04:32:25;;;;;;;8.98;7.00;;;;;;;20.80;64.16;100031.00;1754073;81;21011;-72
2021/08/05 04:34:51;;;;;;;13.98;6.62;;;;;;;20.84;64.04;100038.14;1750231;81;21429;-73
2021/08/05 04:37:19;;;;;;;8.95;6.70;;;;;;;20.83;63.84;100041.34;1755267;81;21586;-72
2021/08/05 04:39:45;;;;;;;11.05;6.50;;;;;;;20.85;63.63;100044.67;1755026;81;22488;-73
2021/08/05 04:42:13;;;;;;;7.62;6.75;;;;;;;20.90;63.76;100045.41;1751046;81;20980;-72
2021/08/05 04:44:40;;;;;;;10.38;6.85;;;;;;;20.92;63.56;100046.05;1744355;81;21086;-76
2021/08/05 04:47:07;;;;;;;8.78;6.22;;;;;;;20.94;63.59;100044.50;1749793;80;21035;-73
2021/08/05 04:49:35;;;;;;;8.90;6.55;;;;;;;21.00;63.81;100039.18;1751089;81;21043;-73
2021/08/05 04:52:03;;;;;;;7.47;6.17;;;;;;;21.07;63.75;100043.25;1751514;81;22188;-73
2021/08/05 04:54:29;;;;;;;11.45;6.60;;;;;;;21.15;63.49;100042.58;1747143;82;21001;-73
2021/08/05 04:56:56;;;;;;;9.43;6.37;;;;;;;21.23;63.30;100040.73;1746901;82;21068;-73
2021/08/05 04:59:22;;;;;;;8.53;6.22;;;;;;;21.29;62.99;100045.36;1749447;81;21018;-73
2021/08/05 05:01:48;;;;;;;8.40;6.80;;;;;;;21.32;62.41;100039.06;1751270;81;20995;-73
2021/08/05 05:04:15;;;;;;;8.10;6.45;;;;;;;21.39;62.20;100038.58;1755709;81;21799;-73
2021/08/05 05:06:41;;;;;;;7.28;6.25;;;;;;;21.47;62.06;100044.82;1729444;81;20937;-73
2021/08/05 05:09:08;;;;;;;8.13;6.70;;;;;;;21.56;61.99;100049.00;1723801;83;21013;-73
2021/08/05 05:11:34;;;;;;;9.00;6.75;;;;;;;21.62;61.83;100042.31;1730241;81;20958;-73
2021/08/05 05:14:01;;;;;;;9.68;6.70;;;;;;;21.71;61.73;100045.13;1755020;81;20972;-73
2021/08/05 05:16:27;;;;;;;8.58;7.08;;;;;;;21.78;61.47;100038.92;1741457;81;21788;-73
2021/08/05 05:18:54;;;;;;;9.95;6.53;;;;;;;21.83;61.38;100044.02;1740383;82;21212;-73
2021/08/05 05:21:22;;;;;;;14.60;6.75;;;;;;;21.85;61.47;100040.61;1741682;81;20962;-73
2021/08/05 05:23:49;;;;;;;11.80;6.70;;;;;;;21.87;61.42;100040.40;1752884;81;21040;-73
2021/08/05 05:26:16;;;;;;;8.95;6.70;;;;;;;21.91;61.50;100032.25;1756068;81;21378;-73
2021/08/05 05:28:42;;;;;;;7.67;6.87;;;;;;;21.99;61.45;100031.52;1755690;81;22667;-73
2021/08/05 05:31:09;;;;;;;11.68;6.83;;;;;;;22.09;61.46;100028.46;1755372;81;20988;-73
2021/08/05 05:33:35;;;;;;;13.70;7.35;;;;;;;22.18;61.48;100026.41;1752081;81;21376;-73
2021/08/05 05:36:02;;;;;;;12.55;7.60;;;;;;;22.28;60.96;100021.44;1755886;81;20993;-73
2021/08/05 05:38:28;;;;;;;9.23;7.47;;;;;;;22.34;60.21;100020.63;1755713;81;21052;-73
2021/08/05 05:40:55;;;;;;;10.53;7.75;;;;;;;22.39;60.07;100014.13;1755944;81;21752;-73
2021/08/05 05:43:21;;;;;;;8.58;7.20;;;;;;;22.47;59.53;100022.48;1752576;81;20990;-73
2021/08/05 05:45:48;;;;;;;8.93;6.60;;;;;;;22.51;59.66;100012.97;1747043;81;20996;-73
2021/08/05 05:48:15;;;;;;;9.60;6.95;;;;;;;22.59;59.70;100012.77;1748096;81;21064;-74
2021/08/05 05:50:42;;;;;;;9.93;7.42;;;;;;;22.71;59.50;100015.64;1742622;81;21411;-73
2021/08/05 05:53:09;;;;;;;10.35;7.10;;;;;;;22.79;59.25;100017.60;1749535;81;22433;-73
2021/08/05 05:55:39;;;;;;;9.18;7.37;;;;;;;22.86;59.11;100012.21;1747103;82;21554;-73
2021/08/05 05:58:03;;;;;;;8.25;7.20;;;;;;;22.94;58.92;100013.86;1750673;81;20961;-73
2021/08/05 06:00:30;;;;;;;14.10;7.42;;;;;;;22.97;58.65;100008.04;1755607;81;21004;-73
2021/08/05 06:02:57;;;;;;;17.75;7.50;;;;;;;23.01;58.69;100016.84;1755314;81;20969;-73
2021/08/05 06:05:23;;;;;;;11.15;7.30;;;;;;;23.04;58.69;100020.98;1754137;81;22206;-73
2021/08/05 06:07:51;;;;;;;9.70;7.12;;;;;;;23.07;58.78;100021.92;1740478;82;20979;-73
2021/08/05 06:10:21;;;;;;;9.03;7.30;;;;;;;23.13;58.73;100026.45;1740467;82;20990;-73
2021/08/05 06:12:49;;;;;;;10.72;7.58;;;;;;;23.17;59.03;100022.30;1743164;81;21060;-73
2021/08/05 06:15:16;;;;;;;10.23;7.78;;;;;;;23.22;58.61;100029.73;1741955;81;21530;-73
2021/08/05 06:17:45;;;;;;;10.38;7.65;;;;;;;23.25;58.58;100035.52;1701271;83;22882;-73
2021/08/05 06:20:13;;;;;;;12.50;8.05;;;;;;;23.27;58.83;100026.72;1741473;82;20958;-73
2021/08/05 06:22:42;;;;;;;9.35;7.60;;;;;;;23.34;58.79;100034.23;1741828;82;21005;-73
2021/08/05 06:25:10;;;;;;;13.43;7.53;;;;;;;23.42;58.59;100034.53;1749111;82;21275;-73
2021/08/05 06:27:37;;;;;;;8.58;7.62;;;;;;;23.48;58.23;100031.52;1752632;82;20988;-73
2021/08/05 06:30:05;;;;;;;10.88;7.83;;;;;;;23.50;58.49;100028.91;1752742;82;21876;-73
2021/08/05 06:32:32;;;;;;;9.93;8.08;;;;;;;23.56;57.75;100020.48;1752622;82;21344;-73
2021/08/05 06:34:59;;;;;;;14.00;8.55;;;;;;;23.61;57.72;100022.86;1698195;83;21004;-73
2021/08/05 06:37:25;;;;;;;12.15;8.15;;;;;;;23.68;57.76;100025.53;1715561;83;21055;-73
2021/08/05 06:39:53;;;;;;;10.98;7.97;;;;;;;23.77;57.41;100023.41;1691318;83;21004;-73
2021/08/05 06:42:19;;;;;;;9.30;7.92;;;;;;;23.88;57.73;100017.33;1749742;82;22202;-73
2021/08/05 06:44:46;;;;;;;10.98;7.92;;;;;;;24.03;57.65;100021.05;1749960;82;21047;-73
2021/08/05 06:47:13;;;;;;;9.53;7.65;;;;;;;24.15;57.23;100017.45;1751928;80;20969;-73
2021/08/05 06:49:39;;;;;;;11.30;7.87;;;;;;;24.22;56.04;100017.38;1752935;81;20989;-74
2021/08/05 06:52:06;;;;;;;11.78;8.13;;;;;;;24.26;56.45;100013.22;1748877;82;21304;-76
2021/08/05 06:54:32;;;;;;;12.18;8.05;;;;;;;24.40;56.01;100013.42;1758529;80;21785;-77
2021/08/05 06:56:59;;;;;;;12.45;8.40;;;;;;;24.51;56.18;100011.88;1759039;81;21005;-76
2021/08/05 06:59:25;;;;;;;10.55;8.13;;;;;;;24.64;55.46;100017.70;1753425;81;20950;-76
2021/08/05 07:01:52;;;;;;;10.85;7.85;;;;;;;24.75;55.07;100015.61;1753342;80;20970;-76
2021/08/05 07:04:18;;;;;;;15.43;8.33;;;;;;;24.86;54.89;100020.80;1741518;82;20989;-76
2021/08/05 07:06:47;;;;;;;12.13;7.70;;;;;;;24.98;55.05;100019.00;1721365;82;21044;-76
2021/08/05 07:09:13;;;;;;;10.72;7.83;;;;;;;25.15;54.74;100020.09;1718316;83;21001;-76
2021/08/05 07:11:41;;;;;;;10.85;7.60;;;;;;;25.31;53.99;100016.79;1726907;82;20946;-76
2021/08/05 07:14:07;;;;;;;9.65;7.53;;;;;;;25.47;53.89;100019.91;1745277;82;21054;-76
2021/08/05 07:16:34;;;;;;;9.78;7.33;;;;;;;25.61;53.28;100024.93;1733854;82;20953;-77
2021/08/05 07:19:00;;;;;;;8.60;7.70;;;;;;;25.71;52.83;100019.00;1704652;83;21864;-76
2021/08/05 07:21:27;;;;;;;9.50;7.70;;;;;;;25.78;53.04;100016.22;1704873;82;20990;-77
2021/08/05 07:23:53;;;;;;;12.05;8.38;;;;;;;25.88;53.19;100005.66;1704905;84;20971;-76
2021/08/05 07:26:20;;;;;;;13.25;7.10;;;;;;;25.97;52.73;100006.98;1705006;82;21011;-76
2021/08/05 07:28:46;;;;;;;11.08;7.30;;;;;;;26.03;52.46;100015.51;1677237;84;21062;-76
2021/08/05 07:31:13;;;;;;;9.95;7.05;;;;;;;26.12;51.96;100011.41;1700518;83;22210;-76
2021/08/05 07:33:39;;;;;;;10.20;6.70;;;;;;;26.21;51.41;100004.61;1690721;84;21051;-76
2021/08/05 07:36:05;;;;;;;8.05;6.17;;;;;;;26.30;50.86;100008.33;1704943;84;21042;-75
2021/08/05 07:38:32;;;;;;;7.90;6.17;;;;;;;26.40;49.96;100012.67;1705197;84;21078;-75
2021/08/05 07:40:58;;;;;;;7.70;5.78;;;;;;;26.48;50.00;99998.78;1705126;84;20999;-75
2021/08/05 07:43:25;;;;;;;8.30;5.75;;;;;;;26.62;50.02;100004.78;1705018;82;22220;-75
2021/08/05 07:45:51;;;;;;;7.40;5.17;;;;;;;26.74;48.79;100005.09;1704820;84;20955;-76
2021/08/05 07:48:17;;;;;;;8.68;4.83;;;;;;;26.87;47.38;100000.48;1704175;82;21080;-75
2021/08/05 07:50:44;;;;;;;6.22;4.85;;;;;;;26.95;47.26;100002.30;1701703;84;20993;-76
2021/08/05 07:53:10;;;;;;;6.55;4.92;;;;;;;27.04;46.88;99994.13;1704872;84;21023;-76
2021/08/05 07:55:38;;;;;;;5.60;5.00;;;;;;;27.15;47.17;100001.94;1704905;84;21841;-76
2021/08/05 07:58:04;;;;;;;7.97;4.50;;;;;;;27.25;47.23;99990.48;1705273;84;20964;-76
2021/08/05 08:00:34;;;;;;;5.85;4.72;;;;;;;27.37;46.20;99997.50;1705051;82;20991;-76
2021/08/05 08:02:59;;;;;;;6.62;5.15;;;;;;;27.48;45.73;99986.84;1704719;82;21030;-75
2021/08/05 08:05:25;;;;;;;8.10;5.33;;;;;;;27.51;45.72;99993.98;1705456;83;20990;-76
2021/08/05 08:07:52;;;;;;;12.33;5.28;;;;;;;27.53;45.92;99987.78;1705356;84;21790;-74
2021/08/05 08:10:18;;;;;;;8.15;4.67;;;;;;;27.60;47.03;99982.19;1705050;84;20992;-72
2021/08/05 08:12:46;;;;;;;6.05;4.90;;;;;;;27.72;45.27;99989.80;1705081;84;21078;-73
2021/08/05 08:15:13;;;;;;;7.47;4.78;;;;;;;27.81;45.18;99986.16;1705155;82;20999;-73
2021/08/05 08:17:39;;;;;;;7.03;4.75;;;;;;;27.87;45.25;99985.98;1731262;81;21017;-73
2021/08/05 08:20:08;;;;;;;7.00;5.00;;;;;;;27.97;46.48;99985.87;1741654;82;21832;-73
2021/08/05 08:22:35;;;;;;;10.18;5.33;;;;;;;28.10;46.33;99975.53;1730817;82;20880;-73
2021/08/05 08:25:01;;;;;;;5.40;4.22;;;;;;;28.19;45.48;99972.70;1722715;83;20988;-73
2021/08/05 08:27:27;;;;;;;6.60;4.50;;;;;;;28.26;45.54;99983.37;1722984;82;21020;-73
2021/08/05 08:29:54;;;;;;;6.75;4.60;;;;;;;28.34;45.33;99984.34;1716721;82;21043;-74
2021/08/05 08:32:21;;;;;;;7.33;4.05;;;;;;;28.40;44.76;99969.78;1721166;82;22157;-75
2021/08/05 08:34:47;;;;;;;6.47;4.40;;;;;;;28.46;45.06;99975.56;1704248;84;21032;-73
2021/08/05 08:37:13;;;;;;;5.05;4.47;;;;;;;28.56;44.01;99985.76;1704099;84;20964;-73
2021/08/05 08:39:40;;;;;;;7.62;4.47;;;;;;;28.55;44.39;99976.50;1714729;82;20984;-73
2021/08/05 08:42:07;;;;;;;5.05;3.87;;;;;;;28.56;45.05;99974.89;1705143;83;21063;-72
2021/08/05 08:44:33;;;;;;;5.45;3.72;;;;;;;28.61;44.83;99969.55;1705389;84;22145;-72
2021/08/05 08:47:00;;;;;;;7.00;3.62;;;;;;;28.60;43.35;99969.80;1704891;83;21006;-73
2021/08/05 08:49:27;;;;;;;15.48;4.47;;;;;;;28.50;43.61;99965.86;1713914;82;20962;-73
2021/08/05 08:51:54;;;;;;;8.45;4.20;;;;;;;28.43;44.58;99962.48;1740887;82;21017;-75
2021/08/05 08:54:21;;;;;;;7.05;3.60;;;;;;;28.42;44.63;99955.95;1723006;82;20972;-73
2021/08/05 08:56:48;;;;;;;3.98;2.98;;;;;;;28.47;44.22;99961.44;1725513;82;22912;-73
2021/08/05 08:59:15;;;;;;;4.92;2.95;;;;;;;28.49;41.75;99961.50;1717180;82;21381;-75
2021/08/05 09:01:43;;;;;;;4.17;2.80;;;;;;;28.51;42.14;99966.69;1724415;81;20952;-76
2021/08/05 09:04:10;;;;;;;4.75;2.87;;;;;;;28.58;41.24;99970.59;1733520;82;20957;-75
2021/08/05 09:06:37;;;;;;;7.87;3.08;;;;;;;28.67;41.66;99975.35;1689625;83;21103;-75
2021/08/05 09:09:07;;;;;;;15.68;3.60;;;;;;;28.69;41.29;99965.59;1727118;82;22197;-75
2021/08/05 09:11:33;;;;;;;5.25;3.05;;;;;;;28.64;41.68;99958.17;1717890;83;20960;-75
2021/08/05 09:14:01;;;;;;;4.90;3.12;;;;;;;28.66;42.88;99952.48;1724256;82;20945;-75
2021/08/05 09:16:30;;;;;;;7.62;3.37;;;;;;;28.85;43.17;99961.16;1726020;81;21189;-75
2021/08/05 09:19:10;;;;;;;5.53;3.20;;;;;;;28.98;41.59;99953.50;1746993;82;21048;-74
2021/08/05 09:21:37;;;;;;;7.05;3.35;;;;;;;29.10;42.75;99955.27;1720122;83;21881;-73
2021/08/05 09:24:08;;;;;;;7.78;2.90;;;;;;;29.29;42.10;99955.22;1727326;82;20940;-76
2021/08/05 09:26:44;;;;;;;6.75;3.25;;;;;;;29.40;41.27;99946.63;1747336;82;20961;-74
2021/08/05 09:29:20;;;;;;;4.03;2.60;;;;;;;29.42;41.38;99948.00;1748841;82;20969;-74
2021/08/05 09:31:54;;;;;;;5.53;2.50;;;;;;;29.43;40.77;99939.30;1708996;82;21003;-73
2021/08/05 09:34:36;;;;;;;4.67;2.77;;;;;;;29.45;40.34;99938.53;1722572;82;21868;-74
2021/08/05 09:37:11;;;;;;;6.60;3.00;;;;;;;29.52;39.69;99933.17;1747611;80;20971;-75
2021/08/05 09:39:40;;;;;;;3.47;2.40;;;;;;;29.61;40.24;99921.28;1749741;82;21015;-75
2021/08/05 09:42:12;;;;;;;4.90;2.70;;;;;;;29.75;39.67;99918.98;1749039;82;21097;-74
2021/08/05 09:44:42;;;;;;;;;;;;;;;29.86;38.42;99919.34;1757723;80;21448;-75
2021/08/05 09:47:13;;;;;;;2.87;2.10;;;;;;;29.96;38.87;99915.88;1749128;80;21810;-74
2021/08/05 09:49:52;;;;;;;3.80;2.50;;;;;;;30.03;38.03;99924.12;1713848;82;20993;-75
2021/08/05 09:52:30;;;;;;;3.17;2.20;;;;;;;30.06;37.62;99924.13;1732672;80;20992;-75
2021/08/05 09:54:59;;;;;;;4.72;3.10;;;;;;;30.03;36.64;99922.75;1738915;81;21002;-74
2021/08/05 09:57:29;;;;;;;5.05;2.67;;;;;;;30.00;37.79;99916.98;1741609;82;21464;-73
2021/08/05 10:00:07;;;;;;;6.58;2.60;;;;;;;30.03;38.35;99912.41;1741088;80;22528;-74
2021/08/05 10:02:44;;;;;;;4.87;2.30;;;;;;;30.12;37.17;99917.14;1750116;81;20945;-77
2021/08/05 10:05:17;;;;;;;5.37;2.70;;;;;;;30.25;37.86;99909.59;1696819;80;21011;-75
2021/08/05 10:07:46;;;;;;;;;;;;;;;30.34;38.20;99907.47;1742050;81;21085;-76
2021/08/05 10:10:14;;;;;;;5.80;2.62;;;;;;;30.41;37.29;99907.25;1750309;82;20178;-76
2021/08/05 10:12:41;;;;;;;3.42;2.55;;;;;;;30.29;37.84;99905.24;1699350;83;21793;-74
2021/08/05 10:15:13;;;;;;;4.25;2.60;;;;;;;30.29;37.84;99905.24;1741644;82;20989;-74
2021/08/05 10:17:41;;;;;;;3.70;2.77;;;;;;;30.32;37.76;99913.73;1741548;82;21006;-75
2021/08/05 10:20:13;;;;;;;6.20;2.85;;;;;;;30.38;37.32;99913.20;1744999;82;21020;-75
2021/08/05 10:22:41;;;;;;;4.10;2.50;;;;;;;30.58;36.22;99909.77;1719944;83;20932;-75
2021/08/05 10:25:11;;;;;;;4.25;2.60;;;;;;;30.58;36.22;99909.77;1719842;83;21845;-74
2021/08/05 10:27:38;;;;;;;4.47;2.50;;;;;;;30.67;36.53;99911.76;1730684;82;21004;-74
2021/08/05 10:30:12;;;;;;;6.47;2.77;;;;;;;30.81;36.26;99902.56;1697578;83;20997;-74
2021/08/05 10:32:40;;;;;;;4.42;2.70;;;;;;;30.93;36.54;99899.61;1747207;81;21023;-74
2021/08/05 10:35:10;;;;;;;3.60;2.72;;;;;;;31.10;36.11;99902.94;1744993;82;20965;-73
2021/08/05 10:37:37;;;;;;;3.30;2.85;;;;;;;31.22;36.67;99898.62;1750690;82;22225;-74
2021/08/05 10:40:06;;;;;;;5.42;2.75;;;;;;;31.29;36.17;99902.75;1741521;82;21441;-74
2021/08/05 10:42:33;;;;;;;6.90;2.80;;;;;;;31.21;36.07;99896.99;1750979;82;21043;-75
2021/08/05 10:45:00;;;;;;;4.83;2.47;;;;;;;31.16;36.35;99905.94;1752576;82;20992;-74
2021/08/05 10:47:30;;;;;;;3.92;2.47;;;;;;;31.17;35.42;99889.02;1752339;80;21056;-72
2021/08/05 10:50:06;;;;;;;3.92;2.37;;;;;;;31.29;36.14;99902.75;1699088;83;21838;-74
2021/08/05 10:52:39;;;;;;;4.10;2.70;;;;;;;31.42;34.08;99891.03;1712861;82;20993;-72
2021/08/05 10:55:27;;;;;;;5.03;2.50;;;;;;;31.47;34.09;99892.41;1745119;82;21020;-72
2021/08/05 10:58:18;;;;;;;4.45;2.87;;;;;;;31.54;35.03;99885.57;1741860;82;20957;-72
2021/08/05 11:00:54;;;;;;;7.90;2.75;;;;;;;31.68;34.82;99889.15;1732737;82;21536;-73
2021/08/05 11:03:45;;;;;;;9.03;2.80;;;;;;;31.77;34.45;99880.17;1700132;84;22517;-72
2021/08/05 11:06:25;;;;;;;3.27;2.60;;;;;;;31.87;34.53;99874.70;1704502;82;20964;-72
2021/08/05 11:08:52;;;;;;;2.80;2.50;;;;;;;31.97;34.01;99871.69;1752154;82;21363;-72
2021/08/05 11:11:26;;;;;;;3.40;2.50;;;;;;;32.03;33.56;99870.56;1752076;82;21397;-72
2021/08/05 11:14:05;;;;;;;5.05;2.70;;;;;;;32.12;34.34;99864.27;1749810;82;21403;-72
2021/08/05 11:17:01;;;;;;;3.85;2.70;;;;;;;32.27;33.31;99870.26;1750056;82;21068;-72
2021/08/05 11:19:33;;;;;;;3.62;2.80;;;;;;;32.31;34.01;99864.53;1756038;81;21091;-72
2021/08/05 11:22:40;;;;;;;4.92;3.30;;;;;;;32.36;33.95;99865.08;1732424;81;21040;-71
2021/08/05 11:25:07;;;;;;;3.77;2.90;;;;;;;32.46;33.43;99860.39;1756897;81;21047;-72
2021/08/05 11:27:34;;;;;;;7.00;3.20;;;;;;;32.61;32.77;99851.30;1757841;81;21051;-72
2021/08/05 11:30:00;;;;;;;6.30;3.60;;;;;;;32.64;33.65;99854.86;1752791;81;22144;-72
2021/08/05 11:32:37;;;;;;;4.97;3.33;;;;;;;32.61;34.03;99861.42;1726770;82;21013;-73
2021/08/05 11:35:08;;;;;;;5.25;3.25;;;;;;;32.59;33.40;99857.60;1752471;82;20962;-72